Time;durP1;ratioP1;P1;durP2;ratioP2;P2;SDS_P1;SDS_P2;PMS_P1;PMS_P2;Temp;Humidity;BMP_temperature;BMP_pressure;BME280_temperature;BME280_humidity;BME280_pressure;Samples;Min_cycle;Max_cycle;Signal;HPM_P1;HPM_P2
2022/06/04 00:00:55;;;;;;;8.48;4.82;;;;;;;25.29;57.09;99702.13;4440585;32;34134;-65
2022/06/04 00:03:23;;;;;;;11.65;4.97;;;;;;;25.24;57.41;99697.31;4448522;32;33549;-66
2022/06/04 00:05:53;;;;;;;8.90;4.50;;;;;;;25.25;57.60;99693.50;4447062;32;33625;-65
2022/06/04 00:08:21;;;;;;;7.70;4.65;;;;;;;25.23;57.82;99694.75;4449530;32;34313;-63
2022/06/04 00:16:26;;;;;;;9.82;4.40;;;;;;;25.14;58.17;99674.16;4445464;32;33792;-64
2022/06/04 00:18:54;;;;;;;7.70;4.37;;;;;;;25.12;58.53;99665.25;4453000;32;33277;-63
2022/06/04 00:21:22;;;;;;;9.18;4.85;;;;;;;24.93;59.13;99662.31;4450003;32;33494;-63
2022/06/04 00:23:50;;;;;;;8.95;5.05;;;;;;;25.15;58.56;99649.28;4450293;32;33886;-65
2022/06/04 00:26:19;;;;;;;8.35;4.78;;;;;;;25.10;58.94;99655.38;4447916;32;34768;-62
2022/06/04 00:28:47;;;;;;;8.25;4.25;;;;;;;25.05;59.05;99648.84;4450476;32;33223;-63
2022/06/04 00:31:17;;;;;;;10.27;4.60;;;;;;;24.93;59.63;99656.00;4446310;32;34792;-63
2022/06/04 00:33:45;;;;;;;8.00;4.53;;;;;;;25.00;59.12;99665.03;4448105;32;34314;-63
2022/06/04 00:36:13;;;;;;;8.57;4.90;;;;;;;25.07;58.82;99658.53;4445128;32;32288;-62
2022/06/04 00:38:41;;;;;;;8.38;5.35;;;;;;;25.07;59.35;99655.78;4447816;32;33345;-65
2022/06/04 00:41:24;;;;;;;8.55;4.85;;;;;;;25.14;59.17;99658.56;4443959;32;32611;-62
2022/06/04 00:44:01;;;;;;;7.57;4.68;;;;;;;25.15;59.68;99660.22;4448159;32;34082;-61
2022/06/04 00:46:41;;;;;;;9.38;5.18;;;;;;;25.10;59.67;99658.09;4447599;32;33980;-62
2022/06/04 00:49:12;;;;;;;9.15;4.82;;;;;;;25.09;59.94;99661.03;4446174;32;33283;-62
2022/06/04 00:51:42;;;;;;;8.23;4.62;;;;;;;25.12;59.64;99652.44;4446618;32;33968;-65
2022/06/04 00:54:10;;;;;;;11.07;5.50;;;;;;;24.98;60.41;99648.00;4449546;32;33453;-62
2022/06/04 00:56:57;;;;;;;9.30;5.03;;;;;;;25.00;60.46;99638.50;4450155;32;33874;-63
2022/06/04 01:00:03;;;;;;;12.07;5.25;;;;;;;24.79;60.93;99634.09;4448521;32;32974;-64
2022/06/04 01:02:52;;;;;;;8.25;5.53;;;;;;;24.66;61.55;99628.59;4447826;32;33470;-63
2022/06/04 01:05:32;;;;;;;8.60;5.28;;;;;;;24.84;61.17;99626.06;4438729;32;33742;-64
2022/06/04 01:08:16;;;;;;;9.20;5.57;;;;;;;24.98;60.88;99624.19;4449073;32;34149;-63
2022/06/04 01:10:54;;;;;;;10.57;5.57;;;;;;;24.22;62.71;99618.19;4448869;32;33160;-62
2022/06/04 01:13:49;;;;;;;8.65;5.07;;;;;;;24.44;61.69;99597.84;4449845;32;33950;-63
2022/06/04 01:16:28;;;;;;;;;;;;;;;24.41;61.63;99590.06;4450999;32;34130;-64
2022/06/04 01:19:38;;;;;;;9.68;5.85;;;;;;;24.56;61.60;99598.09;4448443;32;33596;-63
2022/06/04 01:22:31;;;;;;;11.15;5.82;;;;;;;24.63;61.05;99590.72;4443901;32;33080;-64
2022/06/04 01:25:18;;;;;;;8.88;5.28;;;;;;;24.23;62.39;99587.88;4431040;32;33401;-65
2022/06/04 01:28:09;;;;;;;10.00;5.97;;;;;;;24.53;61.55;99569.25;4451574;32;33895;-64
2022/06/04 01:30:46;;;;;;;9.90;5.87;;;;;;;24.52;61.53;99574.91;4451817;32;34627;-63
2022/06/04 01:33:24;;;;;;;7.18;4.78;;;;;;;24.36;62.47;99581.59;4444299;32;33079;-64
2022/06/04 01:35:56;;;;;;;7.65;5.72;;;;;;;24.62;61.54;99591.75;4449313;32;33901;-65
2022/06/04 01:38:30;;;;;;;9.95;5.80;;;;;;;24.42;62.24;99589.00;4451272;32;32413;-65
2022/06/04 01:41:03;;;;;;;8.02;5.68;;;;;;;24.68;61.49;99593.66;4449416;32;33632;-64
2022/06/04 01:43:52;;;;;;;7.95;5.85;;;;;;;24.70;61.40;99604.41;4450452;32;33125;-64
2022/06/04 01:46:35;;;;;;;10.00;5.97;;;;;;;24.75;61.32;99610.06;4452379;32;33990;-64
2022/06/04 01:49:10;;;;;;;7.78;5.82;;;;;;;24.79;61.18;99616.81;4453691;32;34952;-65
2022/06/04 01:51:38;;;;;;;9.65;5.37;;;;;;;24.69;61.32;99621.84;4452503;32;34044;-64
2022/06/04 01:54:13;;;;;;;10.25;6.93;;;;;;;24.60;61.92;99623.97;4452426;32;34268;-64
2022/06/04 01:56:46;;;;;;;11.75;6.37;;;;;;;24.72;61.67;99625.03;4450706;32;34848;-65
2022/06/04 01:59:23;;;;;;;9.27;6.60;;;;;;;24.69;61.66;99624.59;4451319;32;33847;-63
2022/06/04 02:01:53;;;;;;;12.52;5.72;;;;;;;24.58;61.79;99613.22;4452553;32;33948;-64
2022/06/04 02:04:24;;;;;;;11.27;6.03;;;;;;;24.58;61.86;99601.44;4450362;32;34438;-64
2022/06/04 02:09:54;;;;;;;9.15;6.70;;;;;;;24.70;61.56;99596.19;4441255;32;33814;-63
2022/06/04 02:12:22;;;;;;;9.55;6.37;;;;;;;24.57;62.21;99599.75;4440746;32;33882;-65
2022/06/04 02:14:50;;;;;;;12.00;6.68;;;;;;;24.53;62.43;99595.75;4448910;32;33133;-65
2022/06/04 02:17:21;;;;;;;12.10;6.30;;;;;;;24.60;62.56;99600.19;4447671;32;33554;-64
2022/06/04 02:19:49;;;;;;;8.60;5.68;;;;;;;24.64;62.77;99586.91;4450672;32;34637;-65
2022/06/04 02:22:16;;;;;;;8.98;5.75;;;;;;;24.78;62.26;99576.81;4448707;32;33918;-64
2022/06/04 02:24:45;;;;;;;11.65;5.87;;;;;;;24.70;62.24;99572.41;4449685;32;33198;-64
2022/06/04 02:27:13;;;;;;;8.15;5.25;;;;;;;24.68;62.00;99579.13;4448958;32;33698;-63
2022/06/04 02:29:42;;;;;;;9.27;5.40;;;;;;;24.71;61.71;99592.41;4450902;32;33867;-64
2022/06/04 02:32:22;;;;;;;10.73;6.18;;;;;;;24.51;61.91;99595.13;4448110;32;34654;-67
2022/06/04 02:35:27;;;;;;;9.77;5.65;;;;;;;24.68;61.24;99590.06;4449956;32;33315;-63
2022/06/04 02:37:59;;;;;;;9.25;5.97;;;;;;;24.59;61.29;99586.69;4450996;32;32758;-65
2022/06/04 02:41:06;;;;;;;9.90;5.85;;;;;;;24.08;63.06;99587.22;4448785;32;34112;-65
2022/06/04 02:43:39;;;;;;;9.18;5.75;;;;;;;24.14;62.98;99591.84;4447164;32;33493;-62
2022/06/04 02:46:15;;;;;;;7.75;5.60;;;;;;;24.13;63.05;99590.19;4449672;32;33159;-65
2022/06/04 02:49:05;;;;;;;9.25;6.05;;;;;;;24.05;62.91;99587.66;4438153;32;34670;-64
2022/06/04 02:51:36;;;;;;;9.65;6.32;;;;;;;24.17;63.11;99585.97;4448517;32;35232;-65
2022/06/04 02:54:08;;;;;;;8.55;6.57;;;;;;;23.99;63.63;99583.84;4448114;32;33096;-65
2022/06/04 02:56:38;;;;;;;9.05;6.53;;;;;;;24.12;63.48;99589.34;4442196;32;33848;-65
2022/06/04 02:59:07;;;;;;;11.30;7.25;;;;;;;24.09;63.53;99575.25;4448762;32;33887;-64
2022/06/04 03:01:40;;;;;;;12.93;7.15;;;;;;;23.79;65.36;99566.50;4448813;32;33514;-65
2022/06/04 03:04:08;;;;;;;10.02;6.57;;;;;;;23.32;67.05;99559.97;4448953;32;33786;-63
2022/06/04 03:06:36;;;;;;;8.10;5.37;;;;;;;23.28;66.78;99559.53;4449827;32;34376;-64
2022/06/04 03:09:08;;;;;;;10.40;5.25;;;;;;;23.52;66.02;99560.06;4450666;32;34053;-65
2022/06/04 03:11:41;;;;;;;11.07;5.72;;;;;;;23.36;65.95;99561.25;4447241;32;34963;-65
2022/06/04 03:14:09;;;;;;;9.38;5.60;;;;;;;23.47;65.54;99577.09;4451470;32;32356;-65
2022/06/04 03:16:39;;;;;;;11.25;5.57;;;;;;;23.69;65.12;99578.69;4450621;32;33274;-64
2022/06/04 03:19:07;;;;;;;10.02;5.60;;;;;;;23.87;64.82;99578.09;4449646;32;33732;-65
2022/06/04 03:21:39;;;;;;;12.10;6.20;;;;;;;23.90;64.84;99574.97;4447697;32;35038;-64
2022/06/04 03:24:08;;;;;;;10.15;6.00;;;;;;;23.90;64.71;99574.97;4449661;32;33630;-64
2022/06/04 03:26:36;;;;;;;9.93;6.60;;;;;;;23.90;64.57;99579.59;4448853;32;33302;-64
2022/06/04 03:29:04;;;;;;;10.82;6.03;;;;;;;23.75;65.27;99578.91;4447894;32;33660;-65
2022/06/04 03:31:32;;;;;;;14.27;6.47;;;;;;;24.09;64.09;99586.19;4446970;32;32746;-65
2022/06/04 03:34:00;;;;;;;10.32;6.07;;;;;;;24.10;63.95;99577.75;4449010;32;33955;-66
2022/06/04 03:36:27;;;;;;;13.82;5.95;;;;;;;24.20;63.38;99577.34;4449913;32;33052;-65
2022/06/04 03:38:56;;;;;;;10.07;6.32;;;;;;;24.13;63.82;99571.88;4449444;32;33698;-65
2022/06/04 03:41:24;;;;;;;13.18;7.53;;;;;;;23.91;64.46;99576.63;4449973;32;35226;-64
2022/06/04 03:43:52;;;;;;;11.27;6.47;;;;;;;23.62;65.17;99566.84;4449743;32;34240;-65
2022/06/04 03:46:24;;;;;;;10.00;7.65;;;;;;;23.65;65.26;99566.44;4449042;32;33111;-64
2022/06/04 03:48:56;;;;;;;10.30;8.23;;;;;;;23.17;67.06;99558.19;4435102;32;35000;-64
2022/06/04 03:51:26;;;;;;;11.48;8.45;;;;;;;22.82;69.15;99565.47;4444715;32;33692;-64
2022/06/04 03:53:54;;;;;;;10.93;8.05;;;;;;;23.02;68.63;99571.97;4448413;32;33668;-64
2022/06/04 03:56:23;;;;;;;14.07;8.60;;;;;;;23.24;68.09;99570.03;4450199;32;32856;-65
2022/06/04 03:58:51;;;;;;;13.52;8.82;;;;;;;23.36;67.34;99566.72;4448411;32;33998;-65
2022/06/04 04:01:24;;;;;;;13.20;8.90;;;;;;;23.37;67.43;99571.12;4449695;32;32549;-65
2022/06/04 04:03:52;;;;;;;15.57;9.20;;;;;;;22.91;69.23;99568.91;4447518;32;33492;-67
2022/06/04 04:06:24;;;;;;;12.40;9.20;;;;;;;23.05;68.85;99564.41;4449362;32;33055;-65
2022/06/04 04:08:51;;;;;;;15.23;8.88;;;;;;;23.15;68.57;99570.38;4449673;32;33892;-67
2022/06/04 04:11:22;;;;;;;11.73;9.07;;;;;;;23.31;67.86;99574.69;4450486;32;33907;-65
2022/06/04 04:13:51;;;;;;;12.32;8.90;;;;;;;23.11;68.72;99569.09;4448807;32;33700;-64
2022/06/04 04:16:20;;;;;;;12.75;8.98;;;;;;;23.10;69.07;99570.12;4451075;32;33546;-65
2022/06/04 04:18:48;;;;;;;12.85;9.13;;;;;;;22.90;69.86;99570.81;4448218;32;32480;-61
2022/06/04 04:21:19;;;;;;;13.75;9.05;;;;;;;23.00;69.67;99578.69;4450179;32;33933;-63
2022/06/04 04:23:46;;;;;;;11.45;8.68;;;;;;;22.18;72.95;99585.47;4450547;32;34708;-63
2022/06/04 04:26:15;;;;;;;12.90;9.27;;;;;;;22.23;72.82;99599.38;4450789;32;33413;-63
2022/06/04 04:28:43;;;;;;;14.35;8.98;;;;;;;22.09;73.33;99611.16;4447114;32;34620;-64
2022/06/04 04:31:17;;;;;;;12.48;8.18;;;;;;;22.04;73.69;99636.22;4450757;32;33714;-62
2022/06/04 04:33:45;;;;;;;14.95;9.93;;;;;;;22.40;71.91;99673.56;4446319;32;35008;-63
2022/06/04 04:36:13;;;;;;;17.73;9.68;;;;;;;22.63;71.33;99678.00;4444289;32;33537;-63
2022/06/04 04:38:40;;;;;;;18.70;9.57;;;;;;;23.00;70.13;99644.19;4445686;32;35023;-63
2022/06/04 04:41:10;;;;;;;14.98;9.30;;;;;;;23.08;69.79;99629.53;4450428;32;32810;-63
2022/06/04 04:43:39;;;;;;;10.88;7.07;;;;;;;22.59;71.20;99641.25;4447938;32;35127;-63
2022/06/04 04:46:09;;;;;;;11.45;7.60;;;;;;;22.10;71.63;99624.56;4447410;32;34599;-63
2022/06/04 04:48:37;;;;;;;11.35;8.35;;;;;;;22.58;69.94;99629.50;4449163;32;34965;-64
2022/06/04 04:51:05;;;;;;;11.50;7.55;;;;;;;23.02;68.46;99637.50;4450182;32;33776;-63
2022/06/04 04:53:33;;;;;;;13.23;7.35;;;;;;;23.25;67.95;99636.41;4447397;32;33914;-63
2022/06/04 04:56:00;;;;;;;11.70;6.25;;;;;;;23.26;67.88;99629.88;4448673;32;34171;-63
2022/06/04 04:58:28;;;;;;;11.12;6.45;;;;;;;23.29;67.74;99624.03;4450168;32;34023;-62
2022/06/04 05:00:55;;;;;;;11.90;7.20;;;;;;;23.36;67.55;99618.59;4447478;32;34720;-64
2022/06/04 05:03:23;;;;;;;11.43;6.57;;;;;;;23.54;66.66;99621.66;4449705;32;34034;-65
2022/06/04 05:06:00;;;;;;;10.35;6.50;;;;;;;23.64;66.22;99618.56;4447266;32;33273;-63
2022/06/04 05:08:27;;;;;;;10.07;6.28;;;;;;;23.60;66.54;99617.28;4449806;32;34641;-63
2022/06/04 05:10:55;;;;;;;11.00;6.30;;;;;;;23.73;65.66;99614.66;4447460;32;34059;-62
2022/06/04 05:13:23;;;;;;;11.90;6.00;;;;;;;23.92;65.38;99604.84;4447610;32;33739;-63
2022/06/04 05:15:51;;;;;;;10.50;6.72;;;;;;;23.59;66.26;99599.19;4447386;32;33149;-63
2022/06/04 05:18:18;;;;;;;8.98;5.70;;;;;;;23.57;65.82;99609.50;4446386;32;33448;-63
2022/06/04 05:20:47;;;;;;;11.80;7.87;;;;;;;23.75;65.42;99618.00;4453551;32;33799;-63
2022/06/04 05:23:15;;;;;;;11.00;5.97;;;;;;;23.80;64.68;99631.06;4447847;32;35161;-63
2022/06/04 05:25:42;;;;;;;9.15;6.00;;;;;;;23.41;65.26;99627.03;4448197;32;33606;-62
2022/06/04 05:28:10;;;;;;;9.70;5.78;;;;;;;23.19;66.41;99639.91;4444484;32;32659;-64
2022/06/04 05:30:37;;;;;;;10.13;5.78;;;;;;;23.48;65.54;99636.13;4448287;32;34036;-64
2022/06/04 05:33:07;;;;;;;11.63;5.80;;;;;;;23.59;64.66;99626.50;4446026;32;32391;-66
2022/06/04 05:35:37;;;;;;;12.60;5.43;;;;;;;22.70;67.30;99625.22;4449781;32;33986;-64
2022/06/04 05:38:04;;;;;;;8.50;4.55;;;;;;;23.13;66.20;99621.59;4448378;32;33539;-63
2022/06/04 05:40:32;;;;;;;7.32;4.90;;;;;;;22.73;67.46;99622.09;4449056;32;33823;-64
2022/06/04 05:42:59;;;;;;;8.98;4.37;;;;;;;22.78;67.13;99611.44;4448412;32;34573;-65
2022/06/04 05:45:27;;;;;;;8.98;5.05;;;;;;;22.96;66.62;99610.16;4449612;32;33418;-65
2022/06/04 05:47:55;;;;;;;8.85;5.30;;;;;;;23.06;66.68;99624.28;4448411;32;33661;-64
2022/06/04 05:50:22;;;;;;;9.43;4.60;;;;;;;23.08;66.69;99624.06;4448976;32;32559;-64
2022/06/04 05:52:50;;;;;;;8.65;4.78;;;;;;;23.37;65.73;99617.53;4444260;32;33557;-63
2022/06/04 05:55:18;;;;;;;6.80;3.97;;;;;;;23.45;65.52;99625.59;4447034;32;32086;-64
2022/06/04 05:57:45;;;;;;;8.43;4.60;;;;;;;23.42;65.42;99623.25;4451139;32;34991;-64
2022/06/04 06:00:14;;;;;;;11.05;5.30;;;;;;;23.60;65.12;99620.00;4451942;32;35095;-64
2022/06/04 06:02:42;;;;;;;7.95;4.47;;;;;;;23.51;65.26;99618.50;4450770;32;33961;-66
2022/06/04 06:05:09;;;;;;;10.68;4.50;;;;;;;23.13;65.94;99618.88;4451787;32;33421;-63
2022/06/04 06:07:37;;;;;;;6.57;4.35;;;;;;;23.09;66.18;99620.31;4450936;32;34596;-65
2022/06/04 06:10:05;;;;;;;8.93;4.53;;;;;;;22.84;67.28;99614.41;4451861;32;33864;-63
2022/06/04 06:12:33;;;;;;;8.35;4.18;;;;;;;22.88;66.95;99618.44;4453290;32;35198;-64
2022/06/04 06:15:00;;;;;;;7.37;4.28;;;;;;;23.08;66.11;99618.63;4451722;32;33175;-64
2022/06/04 06:17:28;;;;;;;8.27;4.03;;;;;;;22.96;66.44;99612.87;4452156;32;34814;-64
2022/06/04 06:19:55;;;;;;;9.70;4.80;;;;;;;23.15;66.05;99617.63;4448745;32;34058;-64
2022/06/04 06:22:23;;;;;;;9.48;4.60;;;;;;;23.08;66.10;99621.34;4453106;32;33940;-63
2022/06/04 06:25:10;;;;;;;8.43;4.47;;;;;;;22.56;68.37;99621.50;4452583;32;32198;-64
2022/06/04 06:27:38;;;;;;;10.35;4.53;;;;;;;22.47;68.40;99619.09;4451940;32;33871;-67
2022/06/04 06:30:13;;;;;;;;;;;;;;;22.76;67.54;99620.84;4452819;32;34752;-64
2022/06/04 06:32:41;;;;;;;7.22;4.28;;;;;;;22.88;66.62;99608.34;4449321;32;32557;-64
2022/06/04 06:35:09;;;;;;;8.88;4.40;;;;;;;22.89;66.70;99607.34;4451062;32;34186;-65
2022/06/04 06:37:37;;;;;;;8.43;4.72;;;;;;;22.41;68.28;99614.47;4451916;32;33476;-66
2022/06/04 06:40:06;;;;;;;7.20;3.83;;;;;;;22.54;67.45;99615.41;4449570;32;35366;-65
2022/06/04 06:42:34;;;;;;;10.00;4.12;;;;;;;22.47;67.94;99611.78;4451315;32;34514;-65
2022/06/04 06:45:04;;;;;;;8.18;4.10;;;;;;;22.50;67.89;99614.13;4452355;32;33436;-65
2022/06/04 06:47:33;;;;;;;7.53;3.90;;;;;;;22.47;68.15;99616.38;4452540;32;33989;-65
2022/06/04 06:50:01;;;;;;;8.95;4.28;;;;;;;22.58;67.87;99613.16;4453722;32;33435;-65
2022/06/04 06:52:29;;;;;;;10.85;4.37;;;;;;;22.93;66.59;99614.09;4446858;32;33718;-66
2022/06/04 06:54:57;;;;;;;6.55;4.10;;;;;;;22.81;66.49;99612.09;4449282;32;34285;-63
2022/06/04 06:57:24;;;;;;;7.07;4.30;;;;;;;22.99;66.30;99607.88;4451960;32;32621;-65
2022/06/04 06:59:54;;;;;;;7.45;4.35;;;;;;;22.97;66.48;99612.66;4450871;32;35779;-67
2022/06/04 07:02:22;;;;;;;7.55;4.55;;;;;;;23.18;65.77;99608.22;4446069;32;32795;-65
2022/06/04 07:04:50;;;;;;;10.38;4.93;;;;;;;23.45;64.91;99604.59;4448817;32;32159;-65
2022/06/04 07:07:17;;;;;;;9.90;4.85;;;;;;;23.34;65.35;99602.44;4450920;32;33507;-64
2022/06/04 07:09:45;;;;;;;10.18;5.15;;;;;;;23.00;66.49;99606.81;4450839;32;33788;-65
2022/06/04 07:12:13;;;;;;;9.57;4.53;;;;;;;22.89;67.03;99607.34;4446538;32;33896;-65
2022/06/04 07:14:40;;;;;;;7.25;4.82;;;;;;;23.19;66.29;99598.97;4450829;32;33081;-66
2022/06/04 07:17:08;;;;;;;8.70;4.70;;;;;;;23.28;66.18;99594.19;4450884;32;33919;-63
2022/06/04 07:19:36;;;;;;;7.75;4.40;;;;;;;23.10;66.81;99581.87;4451862;32;35153;-67
2022/06/04 07:22:04;;;;;;;10.52;4.47;;;;;;;23.22;65.99;99593.94;4444155;32;34741;-66
2022/06/04 07:24:31;;;;;;;9.85;4.57;;;;;;;23.39;65.96;99599.91;4448572;32;33262;-65
2022/06/04 07:27:00;;;;;;;8.13;4.70;;;;;;;23.55;65.55;99597.91;4451357;32;32255;-67
2022/06/04 07:29:28;;;;;;;9.00;5.55;;;;;;;23.41;66.41;99586.09;4451926;32;33812;-67
2022/06/04 07:31:56;;;;;;;7.22;4.65;;;;;;;23.58;65.61;99581.13;4444716;32;129456;-65
2022/06/04 07:34:23;;;;;;;8.75;5.00;;;;;;;23.67;65.43;99590.84;4451573;32;31908;-66
2022/06/04 07:36:52;;;;;;;8.48;5.22;;;;;;;23.67;65.82;99593.56;4449342;32;34181;-66
2022/06/04 07:39:19;;;;;;;12.73;5.95;;;;;;;23.91;65.23;99592.19;4452643;32;33737;-64
2022/06/04 07:41:51;;;;;;;9.30;5.18;;;;;;;24.03;65.10;99592.47;4450931;32;34658;-67
2022/06/04 07:44:21;;;;;;;7.20;4.78;;;;;;;23.93;65.15;99593.69;4448918;32;33083;-64
2022/06/04 07:46:49;;;;;;;8.65;4.53;;;;;;;23.30;67.06;99594.81;4452915;32;32159;-65
2022/06/04 07:49:18;;;;;;;9.70;5.72;;;;;;;23.82;65.56;99594.28;4452637;32;33917;-63
2022/06/04 07:51:47;;;;;;;9.45;5.15;;;;;;;23.81;66.20;99600.78;4452627;32;34130;-66
2022/06/04 07:54:15;;;;;;;8.50;5.15;;;;;;;24.06;65.79;99592.91;4451608;32;33263;-65
2022/06/04 07:56:43;;;;;;;9.00;5.37;;;;;;;24.15;65.46;99596.28;4452801;32;34033;-65
2022/06/04 07:59:13;;;;;;;8.65;6.12;;;;;;;24.01;65.79;99598.13;4451229;32;33752;-66
2022/06/04 08:01:41;;;;;;;7.57;5.43;;;;;;;23.88;66.16;99588.00;4449019;32;32662;-65
2022/06/04 08:04:10;;;;;;;9.38;5.70;;;;;;;24.27;64.99;99594.63;4449791;32;32576;-65
2022/06/04 08:06:38;;;;;;;10.02;6.12;;;;;;;24.17;66.04;99585.97;4448169;32;34776;-65
2022/06/04 08:09:06;;;;;;;9.60;6.10;;;;;;;24.13;66.38;99587.44;4449411;32;33166;-65
2022/06/04 08:11:36;;;;;;;8.80;6.32;;;;;;;24.21;65.91;99584.53;4450404;32;33473;-65
2022/06/04 08:14:06;;;;;;;8.63;5.78;;;;;;;24.56;64.76;99595.34;4439911;32;32548;-65
2022/06/04 08:16:41;;;;;;;7.78;5.87;;;;;;;24.25;65.44;99585.78;4452255;32;34149;-65
2022/06/04 08:19:09;;;;;;;9.40;5.93;;;;;;;24.16;65.96;99589.75;4451856;32;33656;-68
2022/06/04 08:21:38;;;;;;;9.70;5.60;;;;;;;24.10;65.87;99579.66;4452736;32;33998;-65
2022/06/04 08:24:08;;;;;;;8.15;5.62;;;;;;;24.31;65.08;99579.50;4451031;32;34467;-65
2022/06/04 08:26:36;;;;;;;8.48;5.80;;;;;;;24.45;65.19;99580.38;4450691;32;33531;-67
2022/06/04 08:29:04;;;;;;;8.52;5.43;;;;;;;24.15;66.13;99579.88;4452229;32;33772;-66
2022/06/04 08:31:31;;;;;;;11.18;5.10;;;;;;;24.57;64.18;99577.88;4449661;32;33878;-65
2022/06/04 08:33:59;;;;;;;9.30;5.25;;;;;;;24.70;64.06;99583.34;4446528;32;31785;-67
2022/06/04 08:36:28;;;;;;;9.18;5.75;;;;;;;24.71;63.48;99590.50;4452008;32;33122;-68
2022/06/04 08:38:55;;;;;;;8.98;5.62;;;;;;;24.84;62.74;99585.00;4452223;32;34788;-67
2022/06/04 08:41:56;;;;;;;9.48;5.68;;;;;;;24.83;63.50;99586.06;4448259;32;33502;-67
2022/06/04 08:45:00;;;;;;;7.10;4.60;;;;;;;24.89;63.75;99584.41;4447640;32;33391;-64
2022/06/04 08:47:36;;;;;;;6.78;4.87;;;;;;;23.97;65.54;99590.56;4401416;32;33430;-64
2022/06/04 08:50:13;;;;;;;6.80;4.57;;;;;;;24.35;64.73;99588.13;4443853;32;34084;-67
2022/06/04 08:52:44;;;;;;;8.13;4.97;;;;;;;24.77;63.78;99591.56;4447000;32;33760;-69
2022/06/04 08:58:14;;;;;;;7.97;4.85;;;;;;;24.75;63.84;99597.25;4448695;32;35402;-65
2022/06/04 09:01:12;;;;;;;9.40;5.15;;;;;;;24.53;64.88;99595.75;4445628;32;34163;-68
2022/06/04 09:03:50;;;;;;;6.82;4.75;;;;;;;24.37;65.57;99596.97;4446786;32;33754;-68
2022/06/04 09:06:46;;;;;;;7.80;4.80;;;;;;;24.27;65.66;99597.37;4445641;32;33226;-66
2022/06/04 09:09:28;;;;;;;7.53;4.50;;;;;;;24.42;65.41;99601.84;4437057;32;32933;-67
2022/06/04 09:12:00;;;;;;;7.68;4.97;;;;;;;24.46;65.70;99603.09;4436005;32;33869;-64
2022/06/04 09:14:34;;;;;;;9.23;4.97;;;;;;;24.53;65.12;99607.53;4444507;32;33920;-63
2022/06/04 09:17:17;;;;;;;8.45;4.55;;;;;;;24.68;65.26;99609.22;4443458;32;31945;-66
2022/06/04 09:19:51;;;;;;;8.10;4.72;;;;;;;24.89;64.60;99603.56;4444753;32;34979;-65
2022/06/04 09:22:22;;;;;;;9.85;4.62;;;;;;;24.61;64.97;99607.31;4441885;32;32400;-65
2022/06/04 09:24:50;;;;;;;4.70;3.00;;;;;;;24.52;65.30;99607.75;4458630;32;31802;-66
2022/06/04 09:27:28;;;;;;;5.60;3.33;;;;;;;24.23;63.77;99595.25;4447678;32;31866;-67
2022/06/04 09:30:09;;;;;;;5.50;3.05;;;;;;;24.74;62.59;99592.81;4445356;32;35041;-65
2022/06/04 09:33:01;;;;;;;7.10;3.10;;;;;;;24.52;65.54;99597.63;4447256;32;34233;-70
2022/06/04 09:35:35;;;;;;;5.12;2.95;;;;;;;24.67;63.93;99593.88;4448186;32;34723;-66
2022/06/04 09:38:03;;;;;;;6.93;3.50;;;;;;;24.78;62.58;99587.75;4450498;32;32126;-65
2022/06/04 09:40:33;;;;;;;6.72;3.45;;;;;;;24.84;63.12;99587.75;4450582;32;32187;-65
2022/06/04 09:43:14;;;;;;;6.40;1.92;;;;;;;24.95;63.07;99583.56;4452485;32;32655;-67
2022/06/04 09:46:03;;;;;;;4.87;2.20;;;;;;;24.81;62.86;99585.44;4449277;32;33940;-68
2022/06/04 09:48:36;;;;;;;3.75;1.80;;;;;;;24.87;61.28;99581.00;4450967;32;34593;-66
2022/06/04 09:51:08;;;;;;;4.97;1.70;;;;;;;24.96;59.50;99587.13;4452212;32;34950;-66
2022/06/04 09:53:46;;;;;;;4.55;1.80;;;;;;;24.75;59.67;99593.66;4452595;32;34645;-65
2022/06/04 09:56:17;;;;;;;3.70;2.03;;;;;;;25.37;59.45;99592.34;4436200;32;33354;-67
2022/06/04 09:58:46;;;;;;;2.60;1.58;;;;;;;25.53;60.08;99586.41;4453870;32;32676;-65
2022/06/04 10:01:14;;;;;;;3.65;1.87;;;;;;;25.77;57.64;99586.72;4449699;32;31992;-66
2022/06/04 10:03:43;;;;;;;6.78;1.62;;;;;;;25.47;57.77;99583.69;4443408;32;34192;-66
2022/06/04 10:06:23;;;;;;;4.18;1.65;;;;;;;26.04;57.81;99586.66;4444392;32;34961;-65
2022/06/04 10:11:56;;;;;;;3.25;1.50;;;;;;;26.01;56.01;99590.69;4447909;32;33562;-65
2022/06/04 10:14:29;;;;;;;3.47;2.10;;;;;;;25.99;55.21;99595.53;4452543;32;34970;-64
2022/06/04 10:16:57;;;;;;;4.25;1.52;;;;;;;26.17;56.49;99586.56;4444735;32;32522;-64
2022/06/04 10:19:26;;;;;;;4.57;1.60;;;;;;;26.31;54.51;99588.16;4449160;32;34396;-65
2022/06/04 10:22:12;;;;;;;4.35;2.05;;;;;;;26.69;54.93;99590.03;4438789;32;33905;-66
2022/06/04 10:24:51;;;;;;;5.95;1.70;;;;;;;26.65;53.93;99597.87;4444846;32;33780;-66
2022/06/04 10:27:22;;;;;;;4.12;1.80;;;;;;;26.47;54.73;99601.34;4449774;32;32506;-64
2022/06/04 10:30:09;;;;;;;3.30;2.08;;;;;;;26.08;57.15;99596.97;4452932;32;33354;-67
2022/06/04 10:33:01;;;;;;;5.87;2.22;;;;;;;26.04;55.90;99592.97;4449169;32;34723;-65
2022/06/04 10:35:51;;;;;;;3.58;1.85;;;;;;;26.43;56.33;99594.63;4444771;32;32595;-64
2022/06/04 10:38:43;;;;;;;5.43;2.03;;;;;;;26.37;55.86;99591.94;4439096;32;32336;-66
2022/06/04 10:41:30;;;;;;;5.00;1.92;;;;;;;25.93;58.48;99602.72;4439197;32;32171;-64
2022/06/04 10:44:07;;;;;;;6.80;2.40;;;;;;;25.96;58.55;99601.44;4449722;32;34082;-65
2022/06/04 10:46:53;;;;;;;4.90;2.70;;;;;;;25.61;59.58;99601.75;4446655;32;32950;-65
2022/06/04 10:49:29;;;;;;;5.05;2.15;;;;;;;26.07;57.84;99609.00;4449881;32;33676;-64
2022/06/04 10:52:12;;;;;;;4.10;2.25;;;;;;;25.79;58.16;99606.56;4446513;32;33017;-66
2022/06/04 10:54:47;;;;;;;4.65;2.33;;;;;;;26.29;58.72;99600.41;4453382;32;32249;-67
2022/06/04 10:57:27;;;;;;;5.30;2.45;;;;;;;25.80;57.36;99608.22;4449303;32;34711;-67
2022/06/04 10:59:59;;;;;;;5.55;2.22;;;;;;;26.12;58.14;99611.06;4448352;32;31858;-63
2022/06/04 11:02:27;;;;;;;5.37;2.40;;;;;;;26.77;57.47;99608.12;4462416;32;34687;-67
2022/06/04 11:05:01;;;;;;;4.37;2.05;;;;;;;26.62;55.71;99613.97;4454777;32;35115;-67
2022/06/04 11:07:57;;;;;;;4.95;2.00;;;;;;;26.45;55.68;99619.97;4450275;32;35154;-64
2022/06/04 11:10:29;;;;;;;3.85;2.40;;;;;;;26.94;52.91;99609.28;4434562;32;32579;-66
2022/06/04 11:13:29;;;;;;;3.65;2.08;;;;;;;26.49;54.07;99617.63;4447140;32;33289;-64
2022/06/04 11:16:20;;;;;;;5.28;2.25;;;;;;;26.10;53.61;99618.66;4457950;32;35060;-64
2022/06/04 11:18:59;;;;;;;4.60;2.12;;;;;;;26.07;55.40;99624.59;4451039;32;32967;-68
2022/06/04 11:21:35;;;;;;;3.35;1.85;;;;;;;26.60;54.26;99619.66;4446717;32;33880;-66
2022/06/04 11:24:09;;;;;;;3.62;1.90;;;;;;;26.64;53.76;99631.03;4444553;32;34508;-65
2022/06/04 11:26:41;;;;;;;3.60;2.15;;;;;;;26.18;55.95;99641.19;4446328;32;32567;-66
2022/06/04 11:29:11;;;;;;;3.75;1.90;;;;;;;26.74;54.37;99636.03;4451685;32;34368;-64
2022/06/04 11:31:58;;;;;;;5.18;2.20;;;;;;;26.56;54.11;99629.41;4452960;32;32383;-65
2022/06/04 11:34:44;;;;;;;2.97;1.75;;;;;;;26.56;53.52;99634.06;4443119;32;33246;-65
2022/06/04 11:37:33;;;;;;;4.03;1.85;;;;;;;27.07;51.85;99631.12;4447133;32;33966;-64
2022/06/04 11:40:10;;;;;;;5.45;2.42;;;;;;;26.78;53.15;99634.53;4445397;32;34106;-65
2022/06/04 11:42:53;;;;;;;4.37;2.37;;;;;;;26.25;54.44;99628.28;4452015;32;33627;-67
2022/06/04 11:45:36;;;;;;;4.18;2.35;;;;;;;25.92;55.76;99630.38;4445575;32;33219;-64
2022/06/04 11:48:22;;;;;;;4.10;2.62;;;;;;;25.95;55.78;99632.69;4444694;32;33546;-64
2022/06/04 11:51:18;;;;;;;3.90;2.25;;;;;;;26.24;55.74;99628.53;4442088;32;32514;-65
2022/06/04 11:54:13;;;;;;;4.93;2.80;;;;;;;26.35;54.04;99632.47;4426082;32;33352;-66
2022/06/04 11:56:59;;;;;;;5.90;2.37;;;;;;;26.37;54.59;99628.44;4438957;32;32728;-66
2022/06/04 11:59:42;;;;;;;4.97;2.58;;;;;;;25.88;54.63;99642.84;4440936;32;32630;-67
2022/06/04 12:02:09;;;;;;;6.62;2.97;;;;;;;26.25;54.56;99644.75;4439560;32;33933;-66
2022/06/04 12:05:00;;;;;;;4.75;2.83;;;;;;;25.71;55.86;99645.16;4446145;32;35220;-67
2022/06/04 12:07:40;;;;;;;4.82;2.35;;;;;;;26.21;53.95;99651.75;4441189;32;33772;-66
2022/06/04 12:10:20;;;;;;;4.62;2.17;;;;;;;26.51;52.58;99642.09;4437494;32;33866;-70
2022/06/04 12:12:48;;;;;;;3.65;2.37;;;;;;;25.74;54.13;99641.97;4442988;32;34064;-68
2022/06/04 12:15:36;;;;;;;4.18;2.05;;;;;;;26.17;53.73;99642.28;4438724;32;32787;-66